Latest Weather Observations for Wynyard

IDT60801

Issued at 3:01 pm EST Sunday 24 May 2015 (issued every 30 minutes, with the page automatically refreshed every 10 minutes)

About weather observations | Map of weather stations | Latest weather observations for TAS | Other Formats
Station Details ID: 091107 Name: WYNYARD AIRPORT Lat: -41.00 Lon: 145.73 Height: 12.0 m
Data from the previous 72 hours. | See also: Recent months at Wynyard
Date/Time
EST
Temp
°C
App
Temp
°C
Dew
Point
Rel
Hum
%
Delta-T
°C
Wind Press
QNH
hPa
Press
MSL
hPa
Rain
since 9 am
mm
Dir
 
Spd
km/h
Gust
km/h
Spd
kts
Gust
kts
24/03:00pm 10.4 8.3 6.7 78 1.7 N 7 11 4 6 1028.9 1028.9 0.0
24/02:30pm 10.3 7.9 6.8 79 1.6 N 9 13 5 7 1029.0 1029.0 0.0
24/02:00pm 11.1 8.0 7.4 78 1.8 NNE 13 17 7 9 1029.1 1029.1 0.0
24/01:30pm 11.5 8.4 7.2 75 2.1 NE 13 15 7 8 1029.1 1029.1 0.0
24/01:00pm 11.8 9.8 6.9 72 2.3 NNE 7 13 4 7 1029.3 1029.3 0.0
24/12:30pm 11.7 9.6 6.8 72 2.3 NNW 7 13 4 7 1029.7 1029.7 0.0
24/12:00pm 11.8 10.0 7.3 74 2.1 WNW 6 9 3 5 1030.0 1030.0 0.0
24/11:30am 10.5 8.3 6.1 74 2.0 NW 7 9 4 5 1030.3 1030.3 0.0
24/11:00am 9.6 6.9 5.8 77 1.7 WNW 9 9 5 5 1030.6 1030.6 0.0
24/10:30am 8.1 5.4 5.6 84 1.1 WNW 9 11 5 6 1030.5 1030.5 0.0
24/10:00am 5.8 2.0 4.0 88 0.8 WNW 13 15 7 8 1030.5 1030.5 0.0
24/09:30am 4.6 1.1 3.7 94 0.4 WNW 11 13 6 7 1030.6 1030.6 0.0
24/09:00am 3.0 -0.6 2.9 99 0.0 WNW 11 15 6 8 1030.8 1030.8 0.0
24/08:30am 1.2 -3.1 1.1 99 0.0 WNW 13 15 7 8 1030.6 1030.6 0.0
24/08:00am 0.3 -4.1 0.2 99 0.0 WNW 13 15 7 8 1030.2 1030.2 0.0
24/07:30am -1.1 -5.7 -1.2 99 0.0 WNW 13 17 7 9 1029.9 1029.9 0.0
24/07:00am -1.5 -5.8 -1.6 99 0.0 W 11 13 6 7 1029.8 1029.8 0.0
24/06:30am -0.1 -4.6 -0.2 99 0.0 WNW 13 15 7 8 1029.7 1029.7 0.0
24/05:30am -0.9 -5.5 -1.0 99 0.0 WNW 13 15 7 8 1029.4 1029.4 0.0
24/05:00am 0.1 -4.0 0.0 99 0.0 WNW 11 13 6 7 1029.4 1029.4 0.0
24/04:30am -0.8 -5.4 -0.9 99 0.0 WNW 13 17 7 9 1029.2 1029.2 0.0
24/04:00am -0.6 -4.8 -0.7 99 0.0 WNW 11 15 6 8 1029.1 1029.1 0.0
24/03:30am 0.3 -3.7 0.2 99 0.0 W 11 15 6 8 1029.0 1029.0 0.0
24/03:00am -0.1 -3.8 -0.2 99 0.0 W 9 13 5 7 1029.0 1029.0 0.0
24/02:30am 0.0 -4.1 -0.1 99 0.0 W 11 15 6 8 1029.2 1029.2 0.0
24/02:00am 1.4 -2.1 1.3 99 0.0 WNW 9 13 5 7 1029.3 1029.3 0.0
24/01:30am 0.9 -3.4 0.8 99 0.0 W 13 15 7 8 1029.2 1029.2 0.0
24/01:00am 2.1 -1.3 2.0 99 0.0 W 9 13 5 7 1029.2 1029.2 0.0
24/12:30am 2.1 -1.8 1.4 95 0.3 WNW 11 13 6 7 1029.3 1029.3 0.0
24/12:00am 2.9 -0.4 2.3 96 0.2 WNW 9 13 5 7 1029.2 1029.2 0.0
 
Date/Time
EST
Temp
°C
App
Temp
°C
Dew
Point
Rel
Hum
%
Delta-T
°C
Wind Press
QNH
hPa
Press
MSL
hPa
Rain
since 9 am
mm
Dir
 
Spd
km/h
Gust
km/h
Spd
kts
Gust
kts
23/11:30pm 3.6 -0.1 2.4 92 0.5 W 11 13 6 7 1029.2 1029.2 0.0
23/11:00pm 4.3 0.4 3.4 94 0.4 WSW 13 17 7 9 1029.1 1029.1 0.0
23/10:30pm 4.5 -0.1 3.5 93 0.4 W 17 17 9 9 1029.4 1029.4 0.0
23/10:00pm 4.3 0.1 4.0 98 0.1 WSW 15 17 8 9 1029.5 1029.5 0.0
23/09:30pm 4.5 -0.6 4.1 97 0.2 W 20 22 11 12 1029.4 1029.4 0.0
23/09:00pm 5.2 1.4 4.0 92 0.5 W 13 15 7 8 1029.5 1029.5 0.0
23/08:30pm 5.9 1.4 4.2 89 0.7 WNW 17 20 9 11 1029.4 1029.4 0.0
23/08:00pm 6.2 3.2 4.0 86 0.9 SW 9 11 5 6 1029.3 1029.3 0.0
23/07:30pm 6.4 1.8 3.7 83 1.1 WSW 17 20 9 11 1029.2 1029.2 0.0
23/07:00pm 7.4 4.6 3.1 74 1.8 WSW 7 11 4 6 1029.3 1029.3 0.0
23/06:30pm 8.9 4.8 4.1 72 2.1 SW 15 22 8 12 1029.2 1029.2 0.0
23/06:00pm 10.2 5.2 4.6 68 2.5 SSW 20 26 11 14 1028.9 1028.9 0.0
23/05:30pm 10.9 5.9 4.8 66 2.8 SSW 20 28 11 15 1028.8 1028.8 0.0
23/05:00pm 11.3 7.8 5.4 67 2.7 SSW 13 19 7 10 1028.7 1028.7 0.0
23/04:30pm 12.5 9.9 6.1 65 3.0 SSW 9 11 5 6 1028.5 1028.5 0.0
23/04:00pm 13.2 10.6 6.1 62 3.3 S 9 15 5 8 1028.4 1028.4 0.0
23/03:30pm 14.4 11.9 6.5 59 3.8 SSW 9 15 5 8 1028.2 1028.2 0.0
23/03:00pm 14.8 11.7 5.6 54 4.3 S 11 24 6 13 1028.0 1028.0 0.0
23/02:30pm 15.1 11.5 6.7 57 4.1 SW 15 20 8 11 1028.0 1028.0 0.0
23/02:00pm 14.9 10.3 5.7 54 4.4 SW 19 26 10 14 1028.2 1028.2 0.0
23/01:30pm 14.7 10.5 5.5 54 4.4 SW 17 26 9 14 1028.3 1028.3 0.0
23/01:00pm 14.1 9.8 5.2 55 4.1 SW 17 24 9 13 1028.6 1028.6 0.0
23/12:30pm 14.1 11.2 6.7 61 3.6 SW 11 19 6 10 1028.8 1028.8 0.0
23/12:00pm 13.2 10.1 5.6 60 3.5 SSW 11 19 6 10 1029.1 1029.1 0.0
23/11:30am 12.8 7.9 5.2 60 3.5 SSW 20 33 11 18 1029.5 1029.5 0.0
23/11:00am 12.3 7.7 5.5 63 3.1 SSW 19 39 10 21 1029.8 1029.8 0.0
23/10:30am 12.1 8.1 6.6 69 2.6 SW 17 26 9 14 1030.0 1030.0 0.0
23/10:00am 11.2 8.2 5.9 70 2.4 SW 11 19 6 10 1030.0 1030.0 0.0
23/09:30am 10.5 8.6 6.6 77 1.8 SW 6 11 3 6 1030.0 1030.0 0.0
23/09:00am 8.5 7.0 6.6 88 0.9 WSW 4 11 2 6 1030.0 1030.0 0.2
23/08:30am 5.4 2.6 5.3 99 0.0 WSW 9 13 5 7 1029.7 1029.7 0.2
23/08:00am 3.0 -1.0 2.9 99 0.0 W 13 17 7 9 1029.5 1029.5 0.0
23/07:30am 1.1 -3.2 1.0 99 0.0 W 13 19 7 10 1029.1 1029.1 0.0
23/07:00am 1.4 -2.9 1.3 99 0.0 WSW 13 19 7 10 1029.1 1029.1 0.0
23/06:30am 1.1 -3.2 1.0 99 0.0 WSW 13 20 7 11 1028.9 1028.9 0.0
23/06:00am 1.3 -3.7 1.2 99 0.0 W 17 22 9 12 1028.6 1028.6 0.0
23/05:30am 0.3 -4.1 0.2 99 0.0 WSW 13 19 7 10 1028.7 1028.7 0.0
23/05:00am 0.0 -4.1 -0.1 99 0.0 WSW 11 13 6 7 1028.7 1028.7 0.0
23/04:30am 0.6 -3.0 0.5 99 0.0 SW 9 13 5 7 1028.6 1028.6 0.0
23/04:00am 1.3 -2.6 1.2 99 0.0 WSW 11 13 6 7 1028.5 1028.5 0.0
23/03:30am 1.1 -2.8 1.0 99 0.0 WSW 11 15 6 8 1028.6 1028.6 0.0
23/03:00am 0.8 -2.8 0.7 99 0.0 WSW 9 13 5 7 1028.7 1028.7 0.0
23/02:30am 1.4 -2.5 1.3 99 0.0 WSW 11 13 6 7 1028.9 1028.9 0.0
23/02:00am 1.4 -2.9 1.3 99 0.0 WSW 13 15 7 8 1028.9 1028.9 0.0
23/01:30am 1.6 -3.0 1.5 99 0.0 WSW 15 19 8 10 1028.9 1028.9 0.0
23/01:00am 1.8 -2.4 1.7 99 0.0 WSW 13 15 7 8 1028.9 1028.9 0.0
23/12:30am 2.0 -2.2 1.9 99 0.0 WSW 13 15 7 8 1029.1 1029.1 0.0
23/12:00am 3.5 0.7 3.4 99 0.0 WSW 7 9 4 5 1029.3 1029.3 0.0
 
Date/Time
EST
Temp
°C
App
Temp
°C
Dew
Point
Rel
Hum
%
Delta-T
°C
Wind Press
QNH
hPa
Press
MSL
hPa
Rain
since 9 am
mm
Dir
 
Spd
km/h
Gust
km/h
Spd
kts
Gust
kts
22/11:30pm 2.9 0.0 2.8 99 0.0 NW 7 11 4 6 1029.3 1029.3 0.0
22/11:00pm 2.1 -2.0 2.0 99 0.0 WSW 13 15 7 8 1029.4 1029.4 0.0
22/10:30pm 2.8 -0.8 2.7 99 0.0 WSW 11 13 6 7 1029.5 1029.5 0.0
22/10:00pm 2.2 -1.9 2.1 99 0.0 WSW 13 17 7 9 1029.6 1029.6 0.0
22/09:30pm 2.5 -1.2 2.4 99 0.0 WSW 11 13 6 7 1029.6 1029.6 0.0
22/09:00pm 2.2 -1.5 2.1 99 0.0 WSW 11 13 6 7 1029.6 1029.6 0.0
22/08:30pm 3.5 -0.5 2.9 96 0.2 WSW 13 15 7 8 1029.7 1029.7 0.0
22/08:00pm 3.2 -0.8 2.6 96 0.2 WSW 13 15 7 8 1029.7 1029.7 0.0
22/07:30pm 4.3 1.2 3.6 95 0.3 W 9 11 5 6 1029.6 1029.6 0.0
22/07:00pm 4.6 0.6 3.1 90 0.6 WSW 13 15 7 8 1029.2 1029.2 0.0
22/06:30pm 4.6 0.0 3.6 93 0.4 WSW 17 17 9 9 1029.0 1029.0 0.0
22/06:00pm 7.3 3.6 4.6 83 1.2 SW 13 17 7 9 1028.9 1028.9 0.0
22/05:30pm 8.0 3.5 4.4 78 1.6 SW 17 22 9 12 1028.6 1028.6 0.0
22/05:00pm 8.7 4.6 4.3 74 1.9 SW 15 20 8 11 1028.4 1028.4 0.0
22/04:30pm 10.4 5.6 4.5 67 2.6 SSW 19 26 10 14 1028.2 1028.2 0.0
22/04:00pm 11.0 6.6 4.5 64 2.9 SW 17 28 9 15 1028.2 1028.2 0.0
22/03:30pm 11.4 6.6 4.8 64 3.0 SW 19 32 10 17 1027.8 1027.8 0.0
22/03:00pm 11.5 4.5 4.3 61 3.2 SW 30 43 16 23 1027.7 1027.7 0.0
22/02:30pm 11.6 5.7 4.1 60 3.4 SSW 24 33 13 18 1027.6 1027.6 0.0
22/02:00pm 12.0 5.9 5.0 62 3.2 SSW 26 41 14 22 1027.7 1027.7 0.0
22/01:30pm 12.2 7.9 5.1 62 3.3 S 17 26 9 14 1027.8 1027.8 0.0
22/01:00pm 11.6 5.8 4.3 61 3.3 S 24 35 13 19 1028.0 1028.0 0.0
22/12:30pm 12.2 7.8 4.9 61 3.3 SSW 17 24 9 13 1028.2 1028.2 0.0
22/12:00pm 12.1 6.6 5.7 65 3.0 SSW 24 35 13 19 1028.6 1028.6 0.0
22/11:30am 11.2 6.2 4.4 63 3.1 SSW 20 33 11 18 1028.9 1028.9 0.0
22/11:00am 11.1 5.7 4.6 64 2.9 SSW 22 30 12 16 1029.4 1029.4 0.0
22/10:30am 11.0 6.1 5.1 67 2.7 SSW 20 32 11 17 1029.4 1029.4 0.0
22/10:00am 10.2 7.1 5.4 72 2.2 W 11 15 6 8 1029.4 1029.4 0.0
22/09:30am 9.4 6.2 5.0 74 2.0 W 11 15 6 8 1029.4 1029.4 0.0
22/09:00am 8.5 5.6 4.9 78 1.6 WSW 9 13 5 7 1029.5 1029.5 0.0
22/08:30am 7.3 3.7 5.1 86 1.0 SW 13 19 7 10 1029.6 1029.6 0.0
22/08:00am 4.8 1.0 3.8 93 0.4 W 13 15 7 8 1029.4 1029.4 0.0
22/07:30am 5.3 1.3 2.7 83 1.1 SW 13 17 7 9 1029.3 1029.3 0.0
22/07:00am 6.8 2.1 3.4 79 1.4 SW 17 22 9 12 1029.0 1029.0 0.0
22/06:30am 7.4 2.6 4.4 81 1.3 SSW 19 28 10 15 1028.8 1028.8 0.0
22/06:00am 6.4 3.7 5.5 94 0.4 W 9 13 5 7 1028.5 1028.5 0.0
22/05:30am 6.0 3.4 5.9 99 0.0 NW 9 11 5 6 1028.3 1028.3 0.0
22/05:00am 5.1 2.3 5.0 99 0.0 W 9 13 5 7 1028.3 1028.3 0.0
22/04:30am 5.9 3.6 4.9 93 0.4 WSW 6 7 3 4 1028.2 1028.2 0.0
22/04:00am 6.7 4.5 6.3 97 0.2 SSW 7 9 4 5 1028.1 1028.1 0.0
22/03:30am 6.0 3.9 5.9 99 0.0 S 6 9 3 5 1028.2 1028.2 0.0
22/03:00am 6.8 4.3 6.7 99 0.0 SSW 9 11 5 6 1028.4 1028.4 0.0
22/02:30am 7.2 5.2 7.1 99 0.0 WSW 7 9 4 5 1028.3 1028.3 0.0
22/02:00am 7.1 5.6 7.0 99 0.0 SSW 4 7 2 4 1028.2 1028.2 0.0
22/01:30am 7.5 5.8 7.4 99 0.0 SSW 6 7 3 4 1028.2 1028.2 0.0
22/01:00am 7.7 7.1 7.6 99 0.0 CALM 0 2 0 1 1028.1 1028.1 0.0
22/12:30am 7.6 6.6 7.5 99 0.0 WNW 2 9 1 5 1028.2 1028.2 0.0
22/12:00am 7.4 4.7 7.3 99 0.0 WSW 11 13 6 7 1028.2 1028.2 0.0
 
Date/Time
EST
Temp
°C
App
Temp
°C
Dew
Point
Rel
Hum
%
Delta-T
°C
Wind Press
QNH
hPa
Press
MSL
hPa
Rain
since 9 am
mm
Dir
 
Spd
km/h
Gust
km/h
Spd
kts
Gust
kts
21/11:30pm 7.1 5.3 7.0 99 0.0 SW 6 7 3 4 1028.1 1028.1 0.0
21/11:00pm 7.9 6.3 7.8 99 0.0 SW 6 9 3 5 1028.2 1028.2 0.0
21/10:30pm 8.4 6.9 8.3 99 0.0 WSW 6 7 3 4 1028.1 1028.1 0.0
21/10:00pm 8.5 7.4 8.4 99 0.0 WNW 4 6 2 3 1028.1 1028.1 0.0
21/09:30pm 8.6 7.1 8.5 99 0.0 SW 6 7 3 4 1028.0 1028.0 0.0
21/09:00pm 8.7 7.1 8.6 99 0.0 WSW 7 9 4 5 1027.9 1027.9 0.0
21/08:30pm 8.7 7.1 8.6 99 0.0 W 7 9 4 5 1027.6 1027.6 0.0
21/08:00pm 8.7 6.7 8.6 99 0.0 W 9 9 5 5 1027.5 1027.5 0.0
21/07:30pm 8.6 6.6 8.5 99 0.0 W 9 9 5 5 1027.3 1027.3 0.0
21/07:00pm 8.1 5.9 8.0 99 0.0 SW 9 11 5 6 1027.1 1027.1 0.0
21/06:30pm 7.3 5.3 7.2 99 0.0 SW 7 11 4 6 1026.8 1026.8 0.0
21/06:00pm 5.9 3.6 5.5 97 0.2 SW 7 9 4 5 1026.6 1026.6 0.0
21/05:30pm 7.4 5.3 6.8 96 0.3 SW 7 9 4 5 1026.1 1026.1 0.0
21/05:00pm 8.8 8.1 7.1 89 0.8 CALM 0 0 0 0 1025.7 1025.7 0.0
21/04:30pm 10.7 10.1 7.2 79 1.7 CALM 0 2 0 1 1025.4 1025.4 0.0
21/04:00pm 11.7 9.8 6.8 72 2.3 E 6 7 3 4 1025.1 1025.1 0.0
21/03:30pm 12.2 10.1 6.7 69 2.6 ENE 7 9 4 5 1024.8 1024.8 0.0

Other Formats:

Comma delimited format used in spreadsheet applications
http://www.bom.gov.au/fwo/IDT60801/IDT60801.95957.axf

JavaScript Object Notation format (JSON) in row-major order
http://www.bom.gov.au/fwo/IDT60801/IDT60801.95957.json